CST,Max TemperatureF,Mean TemperatureF,Min TemperatureF,Max Dew PointF,MeanDew PointF,Min DewpointF,Max Humidity, Mean Humidity, Min Humidity, Max Sea Level PressureIn, Mean Sea Level PressureIn, Min Sea Level PressureIn, Max VisibilityMiles, Mean VisibilityMiles, Min VisibilityMiles, Max Wind SpeedMPH, Mean Wind SpeedMPH, Max Gust SpeedMPH,PrecipitationIn, CloudCover, Events, WindDirDegrees
2013-2-1,39,31,23,27,11,3,70,46,24,30.54,30.42,30.31,10,9,8,15,6,22,0.00,0,,32
2013-2-2,46,37,28,39,26,10,100,69,41,30.32,30.23,30.17,10,9,2,9,2,,0.02,2,Rain,252
2013-2-3,55,42,28,32,28,21,100,67,28,30.22,30.18,30.13,10,9,7,16,3,23,0.00,0,,315
2013-2-4,55,42,30,41,31,27,93,59,38,30.13,30.02,29.95,10,9,4,12,3,17,0.01,2,Rain,185
2013-2-5,62,50,37,46,42,36,100,78,42,30.08,30.02,29.95,10,8,4,6,1,,0.00,3,Rain,305
2013-2-6,62,48,33,43,38,32,100,66,37,30.22,30.12,30.06,10,8,4,9,2,,0.00,0,,98
2013-2-7,64,56,48,54,48,37,94,78,54,30.06,29.97,29.90,10,9,2,6,2,,0.09,5,Rain,149
2013-2-8,55,44,32,54,39,28,100,82,61,30.32,30.17,29.92,9,6,2,14,5,23,0.25,6,Rain-Thunderstorm,23
2013-2-9,53,40,26,32,30,25,100,70,41,30.32,30.24,30.08,10,7,3,8,3,,0.00,1,,111
2013-2-10,59,54,48,57,47,32,100,82,50,30.09,29.95,29.81,10,8,0,18,5,28,1.35,6,Rain-Thunderstorm,179
2013-2-11,57,50,42,55,39,28,100,73,43,30.22,30.13,30.01,10,9,0,9,3,,0.00,0,Fog,6
2013-2-12,48,44,39,39,37,32,93,81,54,30.17,30.00,29.81,10,8,2,13,4,20,0.13,4,Rain,88
2013-2-13,41,37,33,41,37,32,100,90,81,30.07,29.95,29.77,10,6,1,12,4,,0.00,7,Rain,309
2013-2-14,59,46,32,37,34,28,100,69,31,30.11,30.07,30.05,10,8,6,12,4,17,0.00,0,,240
2013-2-15,53,42,32,36,30,25,100,64,35,30.21,30.16,30.08,10,9,7,14,4,18,0.00,1,Thunderstorm,340
2013-2-16,39,32,24,27,20,14,93,66,36,30.29,30.25,30.20,10,9,6,15,3,20,0.00,2,,331
2013-2-17,53,38,23,27,21,14,86,49,28,30.31,30.22,30.14,10,10,8,10,3,20,0.00,3,,184
2013-2-18,57,48,39,50,40,27,100,72,53,30.16,30.03,29.84,10,8,1,16,6,36,0.42,4,Rain-Thunderstorm,185
2013-2-19,50,38,26,50,27,18,100,64,30,30.29,30.21,29.96,10,9,7,14,8,22,0.00,0,,328
2013-2-20,39,32,26,27,18,12,93,57,33,30.36,30.27,30.18,10,9,5,13,3,17,0.00,2,Rain,53
2013-2-21,48,40,33,48,32,19,100,73,37,30.19,29.96,29.79,10,8,1,12,6,20,1.01,7,Rain-Thunderstorm,116
2013-2-22,50,44,37,45,39,36,100,87,66,30.10,30.02,29.92,10,6,0,8,2,,0.00,4,Fog,328
2013-2-23,53,42,30,36,30,27,93,69,38,30.06,30.02,29.96,10,9,3,10,4,,0.00,0,,360
2013-2-24,59,42,26,34,29,25,100,62,33,30.11,30.02,29.91,10,9,5,10,3,,0.00,0,,84
2013-2-25,59,50,41,54,40,28,100,70,50,29.92,29.69,29.38,10,8,1,13,7,31,0.26,5,Rain-Thunderstorm,117
2013-2-26,51,45,39,50,35,28,100,75,65,29.87,29.61,29.41,10,9,5,21,10,32,0.00,7,Rain,250
2013-2-27,48,42,35,34,31,28,87,70,54,30.01,29.95,29.87,10,8,5,14,7,23,0.00,5,,276
2013-2-28,41,34,26,30,26,25,93,70,53,30.12,30.07,30.00,10,9,3,12,5,18,0.00,3,,317